Time;durP1;ratioP1;P1;durP2;ratioP2;P2;SDS_P1;SDS_P2;PMS_P1;PMS_P2;Temp;Humidity;BMP_temperature;BMP_pressure;BME280_temperature;BME280_humidity;BME280_pressure;Samples;Min_cycle;Max_cycle;Signal;HPM_P1;HPM_P2
2024/02/24 00:04:26;;;;;;;0.98;0.85;;;;;;;;;;12496350;23;20116;-73
2024/02/24 00:09:30;;;;;;;2.45;1.27;;;;;;;;;;12481141;23;20371;-73
2024/02/24 00:14:33;;;;;;;1.40;0.88;;;;;;;;;;12495558;23;20363;-73
2024/02/24 00:19:37;;;;;;;0.57;0.57;;;;;;;;;;12482677;23;20019;-73
2024/02/24 00:24:42;;;;;;;1.73;1.08;;;;;;;;;;12481714;23;20031;-73
2024/02/24 00:29:45;;;;;;;1.02;0.75;;;;;;;;;;12495156;23;20094;-73
2024/02/24 00:34:48;;;;;;;2.67;1.00;;;;;;;;;;12495023;23;20027;-73
2024/02/24 00:39:53;;;;;;;1.75;1.10;;;;;;;;;;12493477;23;20023;-73
2024/02/24 00:44:56;;;;;;;3.03;1.20;;;;;;;;;;12495004;23;20034;-73
2024/02/24 00:49:59;;;;;;;1.70;0.95;;;;;;;;;;12480833;23;20098;-73
2024/02/24 00:55:04;;;;;;;1.98;0.88;;;;;;;;;;12493827;23;20102;-73
2024/02/24 01:00:09;;;;;;;1.95;1.30;;;;;;;;;;12478493;23;20023;-73
2024/02/24 01:05:12;;;;;;;1.27;1.10;;;;;;;;;;12482636;23;20187;-73
2024/02/24 01:10:17;;;;;;;2.35;1.23;;;;;;;;;;12491710;23;20437;-73
2024/02/24 01:15:20;;;;;;;0.80;0.60;;;;;;;;;;12481678;23;20128;-73
2024/02/24 01:20:25;;;;;;;0.68;0.60;;;;;;;;;;12482229;23;20027;-73
2024/02/24 01:25:30;;;;;;;0.50;0.50;;;;;;;;;;12491125;23;20031;-73
2024/02/24 01:30:33;;;;;;;1.65;0.70;;;;;;;;;;12490958;23;20023;-73
2024/02/24 01:35:37;;;;;;;0.65;0.52;;;;;;;;;;12482436;23;20023;-73
2024/02/24 01:40:42;;;;;;;0.40;0.40;;;;;;;;;;12481919;23;20086;-73
2024/02/24 01:45:45;;;;;;;1.25;0.55;;;;;;;;;;12490036;23;20106;-73
2024/02/24 01:50:50;;;;;;;0.63;0.52;;;;;;;;;;12481694;23;20098;-73
2024/02/24 01:55:55;;;;;;;0.70;0.60;;;;;;;;;;12488733;23;20023;-73
2024/02/24 02:00:59;;;;;;;1.15;0.80;;;;;;;;;;12480955;23;20098;-73
2024/02/24 02:06:03;;;;;;;0.55;0.50;;;;;;;;;;12479536;23;20027;-73
2024/02/24 02:11:10;;;;;;;0.50;0.50;;;;;;;;;;12480433;23;20030;-73
2024/02/24 02:16:14;;;;;;;0.63;0.60;;;;;;;;;;12502337;23;20027;-73
2024/02/24 02:21:18;;;;;;;1.25;0.60;;;;;;;;;;12487569;23;20030;-73
2024/02/24 02:26:23;;;;;;;0.75;0.75;;;;;;;;;;12485842;23;20028;-73
2024/02/24 02:31:26;;;;;;;0.60;0.50;;;;;;;;;;12478587;23;20102;-73
2024/02/24 02:36:29;;;;;;;0.50;0.50;;;;;;;;;;12484998;23;20114;-73
2024/02/24 02:41:34;;;;;;;0.60;0.60;;;;;;;;;;12485175;23;20165;-73
2024/02/24 02:46:37;;;;;;;0.85;0.55;;;;;;;;;;12485024;23;20054;-73
2024/02/24 02:51:40;;;;;;;0.47;0.47;;;;;;;;;;12495648;23;20020;-73
2024/02/24 02:56:45;;;;;;;1.52;0.77;;;;;;;;;;12482717;23;20108;-73
2024/02/24 03:01:51;;;;;;;0.50;0.50;;;;;;;;;;12488845;23;20023;-73
2024/02/24 03:06:54;;;;;;;0.35;0.35;;;;;;;;;;12490198;23;20633;-73
2024/02/24 03:11:59;;;;;;;0.85;0.50;;;;;;;;;;12488779;23;20083;-73
2024/02/24 03:17:02;;;;;;;0.47;0.47;;;;;;;;;;12488262;23;20083;-73
2024/02/24 03:22:05;;;;;;;0.50;0.50;;;;;;;;;;12486504;23;20342;-73
2024/02/24 03:27:11;;;;;;;0.40;0.40;;;;;;;;;;12485741;23;20035;-73
2024/02/24 03:32:14;;;;;;;0.47;0.47;;;;;;;;;;12485783;23;20360;-73
2024/02/24 03:37:18;;;;;;;0.40;0.40;;;;;;;;;;12485077;23;20039;-73
2024/02/24 03:42:22;;;;;;;0.40;0.40;;;;;;;;;;12483138;23;20426;-73
2024/02/24 03:47:26;;;;;;;0.52;0.50;;;;;;;;;;12481431;23;20429;-73
2024/02/24 03:52:29;;;;;;;0.50;0.50;;;;;;;;;;12484735;23;20030;-73
2024/02/24 03:57:33;;;;;;;0.50;0.50;;;;;;;;;;12483032;23;20346;-73
2024/02/24 04:02:37;;;;;;;0.80;0.40;;;;;;;;;;12481043;23;20102;-73
2024/02/24 04:07:40;;;;;;;0.50;0.50;;;;;;;;;;12481143;23;20110;-73
2024/02/24 04:12:45;;;;;;;0.50;0.50;;;;;;;;;;12482947;23;20414;-73
2024/02/24 04:17:48;;;;;;;0.63;0.63;;;;;;;;;;12482294;23;20729;-73
2024/02/24 04:22:51;;;;;;;0.60;0.60;;;;;;;;;;12481882;23;20027;-77
2024/02/24 04:27:56;;;;;;;0.95;0.80;;;;;;;;;;12482055;23;20169;-74
2024/02/24 04:32:59;;;;;;;1.08;0.60;;;;;;;;;;12483030;23;20106;-74
2024/02/24 04:38:06;;;;;;;0.68;0.52;;;;;;;;;;12499668;23;20098;-73
2024/02/24 04:43:11;;;;;;;0.60;0.50;;;;;;;;;;12499925;23;20015;-74
2024/02/24 04:48:14;;;;;;;0.77;0.52;;;;;;;;;;12499838;23;20107;-73
2024/02/24 04:53:17;;;;;;;1.02;0.70;;;;;;;;;;12499734;23;20102;-73
2024/02/24 04:58:24;;;;;;;1.05;0.60;;;;;;;;;;12498929;23;20078;-73
2024/02/24 05:03:27;;;;;;;0.52;0.52;;;;;;;;;;12481756;23;20110;-73
2024/02/24 05:08:33;;;;;;;0.85;0.50;;;;;;;;;;12499144;23;20023;-73
2024/02/24 05:19:13;;;;;;;0.60;0.60;;;;;;;;;;12469629;23;20036;-82
2024/02/24 05:24:17;;;;;;;1.13;0.57;;;;;;;;;;12468780;23;20074;-81
2024/02/24 05:29:21;;;;;;;0.70;0.70;;;;;;;;;;12468523;23;20094;-82
2024/02/24 05:34:25;;;;;;;0.75;0.60;;;;;;;;;;12470692;23;20031;-82
2024/02/24 05:39:29;;;;;;;1.30;0.52;;;;;;;;;;12468734;23;20078;-82
2024/02/24 05:44:32;;;;;;;1.92;0.60;;;;;;;;;;12470589;23;20447;-82
2024/02/24 05:49:37;;;;;;;0.50;0.50;;;;;;;;;;12471406;23;20054;-82
2024/02/24 05:54:41;;;;;;;0.52;0.50;;;;;;;;;;12472766;23;20391;-82
2024/02/24 05:59:45;;;;;;;0.60;0.55;;;;;;;;;;12470462;23;20042;-82
2024/02/24 06:04:50;;;;;;;1.05;0.98;;;;;;;;;;12470578;23;20583;-83
2024/02/24 06:09:53;;;;;;;1.30;0.60;;;;;;;;;;12469732;23;20058;-83
2024/02/24 06:14:57;;;;;;;0.85;0.60;;;;;;;;;;12466852;23;20651;-81
2024/02/24 06:20:01;;;;;;;1.08;0.68;;;;;;;;;;12467895;23;20023;-82
2024/02/24 06:25:06;;;;;;;1.13;0.70;;;;;;;;;;12468394;23;20061;-82
2024/02/24 06:30:10;;;;;;;0.82;0.60;;;;;;;;;;12466348;23;20061;-82
2024/02/24 06:35:14;;;;;;;0.60;0.60;;;;;;;;;;12466825;23;20067;-82
2024/02/24 06:40:18;;;;;;;0.55;0.50;;;;;;;;;;12469473;23;20050;-83
2024/02/24 06:45:22;;;;;;;0.70;0.55;;;;;;;;;;12469669;23;20038;-82
2024/02/24 06:50:28;;;;;;;0.30;0.30;;;;;;;;;;12467704;23;20058;-84
2024/02/24 06:55:32;;;;;;;0.63;0.50;;;;;;;;;;12468669;23;20426;-82
2024/02/24 07:00:35;;;;;;;0.63;0.63;;;;;;;;;;12467469;23;20073;-83
2024/02/24 07:05:42;;;;;;;1.30;0.65;;;;;;;;;;12475041;23;20593;-82
2024/02/24 07:10:45;;;;;;;1.25;0.52;;;;;;;;;;12465846;23;20047;-82
2024/02/24 07:15:49;;;;;;;0.90;0.70;;;;;;;;;;12464278;23;20585;-82
2024/02/24 07:20:54;;;;;;;0.57;0.50;;;;;;;;;;12469140;23;20054;-83
2024/02/24 07:25:58;;;;;;;0.47;0.47;;;;;;;;;;12456910;23;20110;-83
2024/02/24 07:31:03;;;;;;;0.70;0.50;;;;;;;;;;12465382;23;20054;-82
2024/02/24 07:36:08;;;;;;;0.55;0.50;;;;;;;;;;12466363;23;20075;-82
2024/02/24 07:41:11;;;;;;;0.55;0.52;;;;;;;;;;12471095;23;20027;-83
2024/02/24 07:46:27;;;;;;;0.50;0.50;;;;;;;;;;12467641;23;20031;-82
2024/02/24 07:51:32;;;;;;;1.43;0.60;;;;;;;;;;12476211;23;20050;-83
2024/02/24 07:56:35;;;;;;;0.40;0.40;;;;;;;;;;12468126;23;20035;-82
2024/02/24 08:01:38;;;;;;;0.47;0.32;;;;;;;;;;12469418;23;20066;-82
2024/02/24 08:06:43;;;;;;;1.75;1.13;;;;;;;;;;12469301;23;20367;-83
2024/02/24 08:11:46;;;;;;;1.17;0.80;;;;;;;;;;12468870;23;20027;-83
2024/02/24 08:16:50;;;;;;;0.63;0.60;;;;;;;;;;12465567;23;20456;-82
2024/02/24 08:21:54;;;;;;;0.43;0.40;;;;;;;;;;12466611;23;20060;-83
2024/02/24 08:26:58;;;;;;;0.50;0.40;;;;;;;;;;12465660;23;20106;-82
2024/02/24 08:32:01;;;;;;;0.30;0.30;;;;;;;;;;12465290;23;20239;-82
2024/02/24 08:37:06;;;;;;;0.35;0.35;;;;;;;;;;12464053;23;20051;-82
2024/02/24 08:42:09;;;;;;;0.40;0.40;;;;;;;;;;12463825;23;20030;-82
2024/02/24 08:47:12;;;;;;;0.65;0.40;;;;;;;;;;12465033;23;20102;-82
2024/02/24 08:52:17;;;;;;;0.40;0.40;;;;;;;;;;12460042;23;20035;-82
2024/02/24 08:57:21;;;;;;;0.30;0.30;;;;;;;;;;12462112;23;20023;-83
2024/02/24 09:02:25;;;;;;;0.40;0.30;;;;;;;;;;12459324;23;20051;-84
2024/02/24 09:07:29;;;;;;;0.40;0.40;;;;;;;;;;12463184;23;20587;-82
2024/02/24 09:12:33;;;;;;;0.40;0.40;;;;;;;;;;12465231;23;20070;-82
2024/02/24 09:17:37;;;;;;;0.63;0.60;;;;;;;;;;12470844;23;20130;-84
2024/02/24 09:22:43;;;;;;;0.40;0.38;;;;;;;;;;12474599;23;20027;-86
2024/02/24 09:27:46;;;;;;;0.95;0.40;;;;;;;;;;12473681;23;20360;-84
2024/02/24 09:32:50;;;;;;;1.20;0.60;;;;;;;;;;12498069;23;20054;-87
2024/02/24 09:37:55;;;;;;;1.17;0.50;;;;;;;;;;12471958;23;20081;-85
2024/02/24 09:43:04;;;;;;;1.05;0.50;;;;;;;;;;12472960;23;20423;-87
2024/02/24 09:48:07;;;;;;;0.85;0.40;;;;;;;;;;12473922;23;20518;-86
2024/02/24 09:53:12;;;;;;;0.40;0.40;;;;;;;;;;12474245;23;20423;-88
2024/02/24 09:58:16;;;;;;;2.55;0.50;;;;;;;;;;12474508;23;20023;-87
2024/02/24 10:03:21;;;;;;;1.43;0.60;;;;;;;;;;12474477;23;20060;-84
2024/02/24 10:08:26;;;;;;;1.83;0.70;;;;;;;;;;12473578;23;20652;-84
2024/02/24 10:13:32;;;;;;;0.88;0.60;;;;;;;;;;12474238;23;20019;-84
2024/02/24 10:18:41;;;;;;;2.05;0.65;;;;;;;;;;12476230;23;20024;-85
2024/02/24 10:23:46;;;;;;;0.75;0.50;;;;;;;;;;12464554;23;20036;-84
2024/02/24 10:28:50;;;;;;;1.20;0.50;;;;;;;;;;12474193;23;20150;-85
2024/02/24 10:33:54;;;;;;;0.75;0.40;;;;;;;;;;12487950;23;20032;-83
2024/02/24 10:39:01;;;;;;;1.25;0.57;;;;;;;;;;12470860;23;20083;-85
2024/02/24 10:44:06;;;;;;;0.60;0.60;;;;;;;;;;12473837;23;20015;-87
2024/02/24 10:49:12;;;;;;;1.95;0.55;;;;;;;;;;12474773;23;20471;-84
2024/02/24 10:54:20;;;;;;;1.20;0.73;;;;;;;;;;12489035;23;20034;-84
2024/02/24 10:59:28;;;;;;;0.60;0.50;;;;;;;;;;12473818;23;20071;-87
2024/02/24 11:04:35;;;;;;;0.60;0.50;;;;;;;;;;12485120;23;20412;-87
2024/02/24 11:09:41;;;;;;;0.63;0.50;;;;;;;;;;12487664;23;20143;-84
2024/02/24 11:14:48;;;;;;;0.80;0.60;;;;;;;;;;12478696;23;20024;-73
2024/02/24 11:19:52;;;;;;;0.68;0.47;;;;;;;;;;12490514;23;20033;-73
2024/02/24 11:25:05;;;;;;;0.82;0.40;;;;;;;;;;12493668;23;20054;-73
2024/02/24 11:30:44;;;;;;;0.55;0.40;;;;;;;;;;12482221;23;20033;-73
2024/02/24 11:35:49;;;;;;;2.58;0.80;;;;;;;;;;12482632;23;20051;-73
2024/02/24 11:40:53;;;;;;;0.70;0.40;;;;;;;;;;12491606;23;20106;-73
2024/02/24 11:45:57;;;;;;;1.10;0.40;;;;;;;;;;12484450;23;20113;-73
2024/02/24 11:51:00;;;;;;;0.40;0.40;;;;;;;;;;12490811;23;20035;-73
2024/02/24 11:56:06;;;;;;;0.50;0.43;;;;;;;;;;12490370;23;20039;-73
2024/02/24 12:01:10;;;;;;;0.83;0.50;;;;;;;;;;12490305;23;20442;-74
2024/02/24 12:06:14;;;;;;;0.82;0.40;;;;;;;;;;12489906;23;20027;-73
2024/02/24 12:11:19;;;;;;;0.30;0.30;;;;;;;;;;12489686;23;20028;-73
2024/02/24 12:16:24;;;;;;;0.55;0.40;;;;;;;;;;12489045;23;20356;-73
2024/02/24 12:21:28;;;;;;;0.88;0.57;;;;;;;;;;12482993;23;20031;-73
2024/02/24 12:26:33;;;;;;;0.40;0.40;;;;;;;;;;12487938;23;20029;-73
2024/02/24 12:31:36;;;;;;;0.52;0.40;;;;;;;;;;12487622;23;20058;-73
2024/02/24 12:36:39;;;;;;;1.20;0.43;;;;;;;;;;12487581;23;20054;-74
2024/02/24 12:41:45;;;;;;;0.80;0.40;;;;;;;;;;12487284;23;20103;-73
2024/02/24 12:46:49;;;;;;;1.23;0.63;;;;;;;;;;12487062;23;20029;-73
2024/02/24 12:51:52;;;;;;;0.55;0.43;;;;;;;;;;12486219;23;20051;-73
2024/02/24 12:56:57;;;;;;;0.73;0.50;;;;;;;;;;12485878;23;20047;-73
2024/02/24 13:02:00;;;;;;;0.90;0.65;;;;;;;;;;12486043;23;20047;-73
2024/02/24 13:07:03;;;;;;;1.63;1.40;;;;;;;;;;12485447;23;20518;-73
2024/02/24 13:12:08;;;;;;;0.40;0.40;;;;;;;;;;12482453;23;20045;-73
2024/02/24 13:17:12;;;;;;;0.50;0.50;;;;;;;;;;12481674;23;20023;-73
2024/02/24 13:22:15;;;;;;;1.27;0.40;;;;;;;;;;12496382;23;20027;-73
2024/02/24 13:27:20;;;;;;;0.75;0.50;;;;;;;;;;12494235;23;20591;-73
2024/02/24 13:32:23;;;;;;;0.55;0.50;;;;;;;;;;12489087;23;20030;-73
2024/02/24 13:37:27;;;;;;;0.73;0.47;;;;;;;;;;12485316;23;20376;-73
2024/02/24 13:42:32;;;;;;;2.05;0.52;;;;;;;;;;12483423;23;20030;-73
2024/02/24 13:47:37;;;;;;;0.95;0.50;;;;;;;;;;12479530;23;20035;-73
2024/02/24 13:52:40;;;;;;;0.80;0.50;;;;;;;;;;12480367;23;20028;-73
2024/02/24 13:57:45;;;;;;;0.68;0.50;;;;;;;;;;12482518;23;20023;-73
2024/02/24 14:02:48;;;;;;;1.33;0.65;;;;;;;;;;12482714;23;20115;-73
2024/02/24 14:07:52;;;;;;;2.28;0.60;;;;;;;;;;12481672;23;20054;-73
2024/02/24 14:12:57;;;;;;;0.63;0.50;;;;;;;;;;12499925;23;20134;-73
2024/02/24 14:18:01;;;;;;;0.70;0.50;;;;;;;;;;12480884;23;20023;-73
2024/02/24 14:23:04;;;;;;;1.42;0.60;;;;;;;;;;12501181;23;20040;-73
2024/02/24 14:28:12;;;;;;;0.40;0.40;;;;;;;;;;12480417;23;20386;-73
2024/02/24 14:33:16;;;;;;;1.00;0.52;;;;;;;;;;12500009;23;20468;-73
2024/02/24 14:38:19;;;;;;;1.10;0.60;;;;;;;;;;12479412;23;20780;-73
2024/02/24 14:43:26;;;;;;;1.55;0.60;;;;;;;;;;12480417;23;20027;-73
2024/02/24 14:48:29;;;;;;;1.10;0.65;;;;;;;;;;12499278;23;20094;-72
2024/02/24 14:53:32;;;;;;;1.17;0.63;;;;;;;;;;12499420;23;20023;-73
2024/02/24 14:58:38;;;;;;;1.05;0.60;;;;;;;;;;12484309;23;20075;-73
2024/02/24 15:03:43;;;;;;;0.50;0.40;;;;;;;;;;12501879;23;20049;-73
2024/02/24 15:08:47;;;;;;;1.10;0.40;;;;;;;;;;12499300;23;20034;-73
2024/02/24 15:13:51;;;;;;;1.17;0.50;;;;;;;;;;12500323;23;20050;-73
2024/02/24 15:18:55;;;;;;;3.40;0.90;;;;;;;;;;12484511;23;20479;-73
2024/02/24 15:23:58;;;;;;;1.83;0.75;;;;;;;;;;12500079;23;20037;-73
2024/02/24 15:29:04;;;;;;;2.08;0.50;;;;;;;;;;12499470;23;20032;-73
2024/02/24 15:34:07;;;;;;;;;;;;;;;;;;12485318;23;20138;-73
2024/02/24 15:39:11;;;;;;;0.52;0.40;;;;;;;;;;12485227;23;19929;-73
2024/02/24 15:44:15;;;;;;;1.67;0.70;;;;;;;;;;12506650;23;20043;-73
2024/02/24 15:49:19;;;;;;;0.68;0.65;;;;;;;;;;12498142;23;20467;-73
2024/02/24 15:54:22;;;;;;;1.25;0.50;;;;;;;;;;12482900;23;20081;-73
2024/02/24 15:59:27;;;;;;;1.08;0.50;;;;;;;;;;12496271;23;20047;-73
2024/02/24 16:04:32;;;;;;;2.08;0.70;;;;;;;;;;12495259;23;20033;-73
2024/02/24 16:09:35;;;;;;;0.38;0.30;;;;;;;;;;12495621;23;20027;-73
2024/02/24 16:14:40;;;;;;;0.73;0.60;;;;;;;;;;12496457;23;20027;-73
2024/02/24 16:19:43;;;;;;;1.65;0.52;;;;;;;;;;12484215;23;20027;-73
2024/02/24 16:24:47;;;;;;;0.43;0.35;;;;;;;;;;12496169;23;20463;-73
2024/02/24 16:29:52;;;;;;;1.88;0.60;;;;;;;;;;12495274;23;20031;-73
2024/02/24 16:34:55;;;;;;;0.40;0.40;;;;;;;;;;12495154;23;20023;-73
2024/02/24 16:39:59;;;;;;;1.02;0.50;;;;;;;;;;12494900;23;20027;-73
2024/02/24 16:45:05;;;;;;;1.23;0.73;;;;;;;;;;12494690;23;20110;-73
2024/02/24 16:50:10;;;;;;;;;;;;;;;;;;12484580;23;20031;-73
2024/02/24 16:55:14;;;;;;;1.35;0.60;;;;;;;;;;12493062;23;19988;-73
2024/02/24 17:00:20;;;;;;;1.63;0.65;;;;;;;;;;12493007;23;20047;-73
2024/02/24 17:05:23;;;;;;;;;;;;;;;;;;12493245;23;20035;-73
2024/02/24 17:10:27;;;;;;;1.95;0.70;;;;;;;;;;12494293;23;20221;-73
2024/02/24 17:15:31;;;;;;;1.45;0.70;;;;;;;;;;12478457;23;20123;-73
2024/02/24 17:20:36;;;;;;;2.42;0.60;;;;;;;;;;12493816;23;20034;-73
2024/02/24 17:25:39;;;;;;;1.10;0.70;;;;;;;;;;12491936;23;20055;-73
2024/02/24 17:30:44;;;;;;;0.60;0.60;;;;;;;;;;12482952;23;20031;-73
2024/02/24 17:35:47;;;;;;;0.82;0.70;;;;;;;;;;12491135;23;20051;-73
2024/02/24 17:40:50;;;;;;;1.13;0.70;;;;;;;;;;12490209;23;20039;-73
2024/02/24 17:45:55;;;;;;;0.45;0.40;;;;;;;;;;12490348;23;20055;-73
2024/02/24 17:50:58;;;;;;;1.85;0.70;;;;;;;;;;12489272;23;20033;-73
2024/02/24 17:56:02;;;;;;;0.77;0.65;;;;;;;;;;12488916;23;20050;-73
2024/02/24 18:01:06;;;;;;;1.80;1.05;;;;;;;;;;12488039;23;20103;-73
2024/02/24 18:06:10;;;;;;;3.70;1.52;;;;;;;;;;12484999;23;20027;-72
2024/02/24 18:11:14;;;;;;;1.52;1.00;;;;;;;;;;12502142;23;20038;-72
2024/02/24 18:16:18;;;;;;;1.40;0.80;;;;;;;;;;12477978;23;20050;-73
2024/02/24 18:21:21;;;;;;;1.42;1.10;;;;;;;;;;12477829;23;20106;-72
2024/02/24 18:26:25;;;;;;;1.80;1.00;;;;;;;;;;12482838;23;20098;-73
2024/02/24 18:31:30;;;;;;;0.77;0.60;;;;;;;;;;12481668;23;20053;-72
2024/02/24 18:36:37;;;;;;;0.88;0.60;;;;;;;;;;12490209;23;20027;-73
2024/02/24 18:41:41;;;;;;;0.70;0.60;;;;;;;;;;12482972;23;20082;-73
2024/02/24 18:46:46;;;;;;;1.20;0.60;;;;;;;;;;12482605;23;20027;-73
2024/02/24 18:51:50;;;;;;;0.50;0.50;;;;;;;;;;12485076;23;20031;-73
2024/02/24 18:56:53;;;;;;;2.70;1.10;;;;;;;;;;12484517;23;20031;-73
2024/02/24 19:01:58;;;;;;;1.73;1.15;;;;;;;;;;12486984;23;20652;-73
2024/02/24 19:07:01;;;;;;;3.35;1.50;;;;;;;;;;12484362;23;20037;-73
2024/02/24 19:12:05;;;;;;;3.60;1.65;;;;;;;;;;12486077;23;20200;-73
2024/02/24 19:17:10;;;;;;;3.33;1.65;;;;;;;;;;12485981;23;20031;-73
2024/02/24 19:22:13;;;;;;;3.92;2.13;;;;;;;;;;12485086;23;20058;-73
2024/02/24 19:27:17;;;;;;;4.97;2.53;;;;;;;;;;12489162;23;20471;-73
2024/02/24 19:32:21;;;;;;;3.47;2.35;;;;;;;;;;12489081;23;20031;-73
2024/02/24 19:37:25;;;;;;;4.25;2.50;;;;;;;;;;12487657;23;20030;-73
2024/02/24 19:42:30;;;;;;;3.00;2.10;;;;;;;;;;12485524;23;20110;-73
2024/02/24 19:47:35;;;;;;;3.20;1.80;;;;;;;;;;12485199;23;20513;-73
2024/02/24 19:52:38;;;;;;;3.50;2.00;;;;;;;;;;12483878;23;20035;-73
2024/02/24 19:57:41;;;;;;;4.78;2.17;;;;;;;;;;12483051;23;20066;-73
2024/02/24 20:02:46;;;;;;;2.75;1.80;;;;;;;;;;12482411;23;20027;-73
2024/02/24 20:07:50;;;;;;;3.30;2.10;;;;;;;;;;12483246;23;20083;-73
2024/02/24 20:12:53;;;;;;;2.83;1.60;;;;;;;;;;12483498;23;20031;-73
2024/02/24 20:17:58;;;;;;;3.13;1.70;;;;;;;;;;12484571;23;20169;-73
2024/02/24 20:23:02;;;;;;;2.92;2.03;;;;;;;;;;12484518;23;20122;-73
2024/02/24 20:28:05;;;;;;;3.53;2.03;;;;;;;;;;12483643;23;20023;-73
2024/02/24 20:33:10;;;;;;;2.20;1.88;;;;;;;;;;12484290;23;20028;-73
2024/02/24 20:38:14;;;;;;;2.90;1.92;;;;;;;;;;12482832;23;20423;-73
2024/02/24 20:43:17;;;;;;;3.40;2.17;;;;;;;;;;12480784;23;20106;-73
2024/02/24 20:48:23;;;;;;;3.55;2.20;;;;;;;;;;12482248;23;20502;-73
2024/02/24 20:53:27;;;;;;;3.15;2.15;;;;;;;;;;12482710;23;20023;-73
2024/02/24 20:58:32;;;;;;;4.20;2.25;;;;;;;;;;12489900;23;20023;-73
2024/02/24 21:03:37;;;;;;;2.37;1.60;;;;;;;;;;12490343;23;20033;-73
2024/02/24 21:08:40;;;;;;;1.85;1.58;;;;;;;;;;12486990;23;20029;-73
2024/02/24 21:13:43;;;;;;;1.27;0.95;;;;;;;;;;12484426;23;20023;-73
2024/02/24 21:18:49;;;;;;;1.25;1.00;;;;;;;;;;12484443;23;20027;-73
2024/02/24 21:23:54;;;;;;;1.63;1.00;;;;;;;;;;12483650;23;20110;-73
2024/02/24 21:28:57;;;;;;;1.23;0.95;;;;;;;;;;12482229;23;20118;-73
2024/02/24 21:34:02;;;;;;;1.20;1.10;;;;;;;;;;12482793;23;20065;-73
2024/02/24 21:39:06;;;;;;;0.70;0.70;;;;;;;;;;12482460;23;20118;-73
2024/02/24 21:44:09;;;;;;;0.80;0.80;;;;;;;;;;12483072;23;20027;-73
2024/02/24 21:49:15;;;;;;;0.73;0.70;;;;;;;;;;12481594;23;20023;-73
2024/02/24 21:54:18;;;;;;;1.43;1.27;;;;;;;;;;12482087;23;20051;-73
2024/02/24 21:59:21;;;;;;;2.80;1.08;;;;;;;;;;12482094;23;20262;-73
2024/02/24 22:04:26;;;;;;;2.40;1.40;;;;;;;;;;12481143;23;20027;-73
2024/02/24 22:09:31;;;;;;;3.53;1.00;;;;;;;;;;12479128;23;20262;-73
2024/02/24 22:14:34;;;;;;;3.20;1.58;;;;;;;;;;12503573;23;20034;-73
2024/02/24 22:19:39;;;;;;;1.77;1.02;;;;;;;;;;12476906;23;20154;-73
2024/02/24 22:24:42;;;;;;;1.75;1.00;;;;;;;;;;12479711;23;20027;-73
2024/02/24 22:29:46;;;;;;;1.17;0.80;;;;;;;;;;12479419;23;20031;-73
2024/02/24 22:34:53;;;;;;;1.13;1.02;;;;;;;;;;12492509;23;20038;-73
2024/02/24 22:39:57;;;;;;;0.80;0.80;;;;;;;;;;12479798;23;20027;-73
2024/02/24 22:45:01;;;;;;;1.20;0.80;;;;;;;;;;12491882;23;20098;-73
2024/02/24 22:50:07;;;;;;;1.85;1.10;;;;;;;;;;12492009;23;20023;-73
2024/02/24 22:55:11;;;;;;;1.25;1.10;;;;;;;;;;12491466;23;20082;-73
2024/02/24 23:00:15;;;;;;;1.45;1.00;;;;;;;;;;12490821;23;20519;-73
2024/02/24 23:05:20;;;;;;;1.95;1.20;;;;;;;;;;12490785;23;20586;-73
2024/02/24 23:10:23;;;;;;;4.35;1.48;;;;;;;;;;12479162;23;20023;-73
2024/02/24 23:15:26;;;;;;;2.33;1.50;;;;;;;;;;12481011;23;20668;-72
2024/02/24 23:20:31;;;;;;;2.40;1.27;;;;;;;;;;12491582;23;20107;-72
2024/02/24 23:25:35;;;;;;;1.02;0.90;;;;;;;;;;12492798;23;20027;-72
2024/02/24 23:30:39;;;;;;;2.35;1.27;;;;;;;;;;12481853;23;20029;-72
2024/02/24 23:35:43;;;;;;;2.17;1.20;;;;;;;;;;12490389;23;20114;-72
2024/02/24 23:40:47;;;;;;;1.63;1.13;;;;;;;;;;12481711;23;20404;-72
2024/02/24 23:45:50;;;;;;;2.00;1.10;;;;;;;;;;12491164;23;20105;-72
2024/02/24 23:50:54;;;;;;;2.08;1.10;;;;;;;;;;12483169;23;20098;-72
2024/02/24 23:55:58;;;;;;;1.52;1.08;;;;;;;;;;12490309;23;20058;-72
